createdAt,value
2022-08-29T00:00:30.817Z,102492.63
2022-08-29T00:03:00.182Z,102502.38
2022-08-29T00:05:30.909Z,102498.91
2022-08-29T00:07:59.388Z,102508.50
2022-08-29T00:10:27.274Z,102513.63
2022-08-29T00:12:54.697Z,102508.41
2022-08-29T00:15:25.917Z,102503.09
2022-08-29T00:17:53.517Z,102514.63
2022-08-29T00:20:30.344Z,102513.59
2022-08-29T00:23:03.690Z,102516.06
2022-08-29T00:25:31.383Z,102514.25
2022-08-29T00:27:59.248Z,102510.66
2022-08-29T00:30:26.360Z,102515.03
2022-08-29T00:32:53.493Z,102522.94
2022-08-29T00:35:24.474Z,102522.94
2022-08-29T00:37:52.166Z,102524.75
2022-08-29T00:40:44.973Z,102529.97
2022-08-29T00:43:20.872Z,102535.28
2022-08-29T00:46:05.279Z,102546.97
2022-08-29T00:48:34.929Z,102546.28
2022-08-29T00:51:05.245Z,102554.53
2022-08-29T00:53:44.157Z,102562.66
2022-08-29T00:56:13.924Z,102560.91
2022-08-29T00:58:46.211Z,102569.91
2022-08-29T01:01:14.209Z,102572.72
2022-08-29T01:03:42.930Z,102585.72
2022-08-29T01:06:11.355Z,102578.28
2022-08-29T01:08:38.169Z,102576.53
2022-08-29T01:11:24.996Z,102581.06
2022-08-29T01:13:54.756Z,102587.88
2022-08-29T01:16:24.225Z,102592.19
2022-08-29T01:18:56.880Z,102593.13
2022-08-29T01:21:47.498Z,102602.03
2022-08-29T01:24:20.095Z,102609.09
2022-08-29T01:26:47.960Z,102602.94
2022-08-29T01:29:16.192Z,102607.44
2022-08-29T01:31:56.935Z,102609.22
2022-08-29T01:34:27.430Z,102615.34
2022-08-29T01:37:03.849Z,102618.00
2022-08-29T01:39:33.945Z,102626.00
2022-08-29T01:42:04.247Z,102631.38
2022-08-29T01:44:31.529Z,102640.19
2022-08-29T01:47:03.117Z,102646.31
2022-08-29T01:49:33.151Z,102642.00
2022-08-29T01:52:02.078Z,102651.00
2022-08-29T01:54:30.108Z,102658.97
2022-08-29T01:56:56.955Z,102661.53
2022-08-29T01:59:27.206Z,102658.06
2022-08-29T02:01:58.621Z,102668.75
2022-08-29T02:04:25.684Z,102667.94
2022-08-29T02:06:52.619Z,102671.38
2022-08-29T02:09:19.437Z,102686.47
2022-08-29T02:11:46.497Z,102690.88
2022-08-29T02:14:19.343Z,102694.47
2022-08-29T02:16:48.126Z,102701.47
2022-08-29T02:19:16.604Z,102698.81
2022-08-29T02:21:44.453Z,102701.50
2022-08-29T02:24:25.055Z,102701.47
2022-08-29T02:26:54.662Z,102710.19
2022-08-29T02:29:21.672Z,102708.50
2022-08-29T02:31:48.792Z,102705.88
2022-08-29T02:34:16.411Z,102715.53
2022-08-29T02:36:44.659Z,102719.09
2022-08-29T02:39:12.306Z,102711.16
2022-08-29T02:41:42.037Z,102705.03
2022-08-29T02:44:11.365Z,102705.13
2022-08-29T02:46:38.218Z,102704.16
2022-08-29T02:49:05.808Z,102694.31
2022-08-29T02:51:34.087Z,102696.88
2022-08-29T02:54:01.717Z,102689.91
2022-08-29T02:56:30.006Z,102684.66
2022-08-29T02:58:57.747Z,102685.50
2022-08-29T03:01:27.363Z,102674.00
2022-08-29T03:03:54.475Z,102680.13
2022-08-29T03:06:22.308Z,102682.69
2022-08-29T03:08:50.004Z,102672.78
2022-08-29T03:11:17.392Z,102675.38
2022-08-29T03:13:44.866Z,102670.06
2022-08-29T03:16:11.977Z,102678.91
2022-08-29T03:18:38.983Z,102677.09
2022-08-29T03:21:05.891Z,102682.19
2022-08-29T03:23:32.682Z,102691.16
2022-08-29T03:25:59.568Z,102717.59
2022-08-29T03:28:26.386Z,102722.91
2022-08-29T03:30:53.188Z,102734.38
2022-08-29T03:33:20.003Z,102741.50
2022-08-29T03:35:46.772Z,102748.78
2022-08-29T03:38:13.705Z,102762.19
2022-08-29T03:40:42.390Z,102779.66
2022-08-29T03:43:09.988Z,102793.59
2022-08-29T03:45:36.832Z,102795.38
2022-08-29T03:48:04.351Z,102799.16
2022-08-29T03:50:31.363Z,102809.69
2022-08-29T03:52:58.357Z,102817.41
2022-08-29T03:55:26.197Z,102814.66
2022-08-29T03:57:55.054Z,102808.63
2022-08-29T04:00:21.875Z,102819.13
2022-08-29T04:02:49.385Z,102825.19
2022-08-29T04:05:18.038Z,102819.97
2022-08-29T04:07:44.925Z,102826.34
2022-08-29T04:10:16.319Z,102830.63
2022-08-29T04:12:43.177Z,102835.88
2022-08-29T04:15:11.777Z,102837.78
2022-08-29T04:17:53.216Z,102835.06
2022-08-29T04:20:25.050Z,102834.16
2022-08-29T04:22:54.241Z,102838.47
2022-08-29T04:25:23.126Z,102836.59
2022-08-29T04:27:49.929Z,102840.03
2022-08-29T04:30:19.731Z,102839.13
2022-08-29T04:32:47.399Z,102832.00
2022-08-29T04:35:15.813Z,102832.81
2022-08-29T04:37:43.911Z,102830.09
2022-08-29T04:40:15.467Z,102813.25
2022-08-29T04:42:43.292Z,102811.56
2022-08-29T04:45:12.911Z,102813.25
2022-08-29T04:47:40.937Z,102813.94
2022-08-29T04:50:11.759Z,102804.00
2022-08-29T04:52:39.086Z,102808.44
2022-08-29T04:55:07.205Z,102799.69
2022-08-29T04:57:35.250Z,102803.09
2022-08-29T05:00:04.794Z,102806.44
2022-08-29T05:02:31.975Z,102806.31
2022-08-29T05:04:58.815Z,102811.47
2022-08-29T05:07:26.994Z,102806.06
2022-08-29T05:10:00.971Z,102810.34
2022-08-29T05:12:29.907Z,102801.47
2022-08-29T05:14:57.863Z,102805.84
2022-08-29T05:17:24.743Z,102796.97
2022-08-29T05:19:51.895Z,102801.28
2022-08-29T05:22:20.051Z,102790.56
2022-08-29T05:24:48.850Z,102801.09
2022-08-29T05:27:19.121Z,102797.22
2022-08-29T05:29:49.013Z,102792.50
2022-08-29T05:32:17.501Z,102786.25
2022-08-29T05:34:45.473Z,102774.84
2022-08-29T05:37:16.452Z,102773.25
2022-08-29T05:39:43.285Z,102769.16
2022-08-29T05:42:12.069Z,102778.53
2022-08-29T05:44:39.957Z,102778.56
2022-08-29T05:47:09.162Z,102777.56
2022-08-29T05:49:37.906Z,102779.78
2022-08-29T05:52:06.288Z,102782.03
2022-08-29T05:54:36.021Z,102780.59
2022-08-29T05:57:03.145Z,102768.81
2022-08-29T05:59:30.344Z,102750.13
2022-08-29T06:01:57.305Z,102745.94
2022-08-29T06:04:24.148Z,102741.00
2022-08-29T06:06:50.994Z,102733.03
2022-08-29T06:09:17.829Z,102724.34
2022-08-29T06:11:50.391Z,102723.53
2022-08-29T06:14:17.536Z,102722.25
2022-08-29T06:16:44.328Z,102717.59
2022-08-29T06:19:12.000Z,102707.09
2022-08-29T06:21:38.966Z,102716.38
2022-08-29T06:24:07.321Z,102709.97
2022-08-29T06:26:35.070Z,102700.03
2022-08-29T06:29:05.639Z,102700.56
2022-08-29T06:31:32.747Z,102689.88
2022-08-29T06:34:02.204Z,102683.44
2022-08-29T06:36:29.906Z,102675.34
2022-08-29T06:38:58.499Z,102674.34
2022-08-29T06:41:26.714Z,102661.38
2022-08-29T06:43:56.789Z,102639.72
2022-08-29T06:46:30.108Z,102623.69
2022-08-29T06:48:59.407Z,102626.59
2022-08-29T06:51:27.230Z,102617.47
2022-08-29T06:53:54.892Z,102610.88
2022-08-29T06:56:22.333Z,102607.91
2022-08-29T06:58:49.201Z,102593.28
2022-08-29T07:01:19.812Z,102573.44
2022-08-29T07:03:47.428Z,102558.88
2022-08-29T07:06:17.188Z,102530.22
2022-08-29T07:08:55.732Z,102516.59
2022-08-29T07:11:25.625Z,102513.00
2022-08-29T07:13:52.635Z,102512.84
2022-08-29T07:16:19.787Z,102500.69
2022-08-29T07:18:47.399Z,102511.00
2022-08-29T07:21:20.923Z,102504.00
2022-08-29T07:23:49.432Z,102515.66
2022-08-29T07:26:19.455Z,102525.16
2022-08-29T07:28:51.250Z,102533.78
2022-08-29T07:31:18.677Z,102541.84
2022-08-29T07:33:45.554Z,102544.25
2022-08-29T07:36:12.646Z,102540.38
2022-08-29T07:38:39.583Z,102540.66
2022-08-29T07:41:09.818Z,102550.13
2022-08-29T07:43:37.584Z,102551.44
2022-08-29T07:46:09.453Z,102555.69
2022-08-29T07:48:37.003Z,102563.44
2022-08-29T07:51:11.381Z,102558.16
2022-08-29T07:53:39.045Z,102554.00
2022-08-29T07:56:08.024Z,102558.34
2022-08-29T07:58:36.233Z,102554.22
2022-08-29T08:01:04.126Z,102560.53
2022-08-29T08:03:32.490Z,102573.91
2022-08-29T08:05:59.764Z,102581.38
2022-08-29T08:08:31.098Z,102619.28
2022-08-29T08:10:58.009Z,102643.81
2022-08-29T08:13:24.885Z,102650.16
2022-08-29T08:15:51.685Z,102669.69
2022-08-29T08:18:18.702Z,102673.44
2022-08-29T08:20:48.352Z,102699.16
2022-08-29T08:23:17.051Z,102714.13
2022-08-29T08:25:44.897Z,102711.50
2022-08-29T08:28:15.854Z,102722.06
2022-08-29T08:30:42.970Z,102719.22
2022-08-29T08:33:10.893Z,102710.53
2022-08-29T08:35:42.001Z,102706.88
2022-08-29T08:38:09.304Z,102713.09
2022-08-29T08:40:43.680Z,102711.91
2022-08-29T08:43:26.233Z,102703.13
2022-08-29T08:45:55.368Z,102699.41
2022-08-29T08:48:26.029Z,102691.03
2022-08-29T08:51:17.060Z,102692.16
2022-08-29T08:53:47.632Z,102693.34
2022-08-29T08:56:34.501Z,102691.47
2022-08-29T08:59:25.303Z,102689.38
2022-08-29T09:02:00.338Z,102670.78
2022-08-29T09:04:37.635Z,102667.88
2022-08-29T09:07:22.347Z,102658.44
2022-08-29T09:10:17.052Z,102637.97
2022-08-29T09:13:08.949Z,102633.91
2022-08-29T09:15:45.316Z,102627.97
2022-08-29T09:18:24.110Z,102629.91
2022-08-29T09:20:51.258Z,102643.84
2022-08-29T09:23:44.416Z,102640.75
2022-08-29T09:26:15.228Z,102634.03
2022-08-29T09:28:42.182Z,102633.22
2022-08-29T09:31:33.706Z,102631.84
2022-08-29T09:34:04.265Z,102629.28
2022-08-29T09:36:52.099Z,102634.94
2022-08-29T09:39:29.600Z,102632.88
2022-08-29T09:42:13.855Z,102620.28
2022-08-29T09:44:41.829Z,102599.16
2022-08-29T09:47:13.624Z,102582.22
2022-08-29T09:50:00.111Z,102585.09
2022-08-29T09:52:27.410Z,102559.06
2022-08-29T09:54:54.853Z,102563.50
2022-08-29T09:57:26.282Z,102570.66
2022-08-29T10:00:15.849Z,102564.81
2022-08-29T10:02:45.485Z,102582.41
2022-08-29T10:05:35.949Z,102575.28
2022-08-29T10:08:06.072Z,102586.28
2022-08-29T10:10:36.483Z,102587.91
2022-08-29T10:13:03.240Z,102596.22
2022-08-29T10:15:49.927Z,102592.41
2022-08-29T10:18:36.277Z,102603.38
2022-08-29T10:21:24.542Z,102603.97
2022-08-29T10:24:03.914Z,102602.50
2022-08-29T10:26:50.508Z,102599.50
2022-08-29T10:29:45.947Z,102588.41
2022-08-29T10:32:37.878Z,102607.97
2022-08-29T10:35:22.770Z,102622.75
2022-08-29T10:37:55.407Z,102594.81
2022-08-29T10:40:45.585Z,102591.28
2022-08-29T10:43:34.175Z,102577.28
2022-08-29T10:46:26.089Z,102583.28
2022-08-29T10:49:10.711Z,102563.94
2022-08-29T10:51:43.402Z,102551.16
2022-08-29T10:54:33.665Z,102545.09
2022-08-29T10:57:03.536Z,102530.81
2022-08-29T10:59:50.373Z,102523.44
2022-08-29T11:02:32.484Z,102489.56
2022-08-29T11:05:05.057Z,102483.78
2022-08-29T11:07:43.769Z,102486.09
2022-08-29T11:10:17.732Z,102463.41
2022-08-29T11:12:47.192Z,102456.00
2022-08-29T11:16:00.921Z,102437.59
2022-08-29T11:18:36.917Z,102429.75
2022-08-29T11:21:14.922Z,102424.69
2022-08-29T11:23:46.533Z,102422.84
2022-08-29T11:26:28.333Z,102423.22
2022-08-29T11:29:06.044Z,102431.41
2022-08-29T11:31:51.368Z,102435.81
2022-08-29T11:34:59.478Z,102445.53
2022-08-29T11:38:03.665Z,102438.88
2022-08-29T11:41:26.419Z,102437.09
2022-08-29T11:43:38.723Z,102428.56
2022-08-29T11:46:08.103Z,102404.81
2022-08-29T11:49:15.395Z,102413.88
2022-08-29T11:51:52.574Z,102416.97
2022-08-29T11:54:25.340Z,102420.72
2022-08-29T11:57:01.329Z,102414.06
2022-08-29T11:59:48.517Z,102403.41
2022-08-29T12:02:27.609Z,102402.72
2022-08-29T12:05:04.319Z,102392.16
2022-08-29T12:07:53.810Z,102404.59
2022-08-29T12:10:21.984Z,102414.44
2022-08-29T12:12:51.131Z,102402.97
2022-08-29T12:15:27.402Z,102396.72
2022-08-29T12:18:18.086Z,102403.25
2022-08-29T12:20:50.988Z,102406.66
2022-08-29T12:23:20.898Z,102397.50
2022-08-29T12:26:09.622Z,102401.41
2022-08-29T12:28:47.336Z,102406.09
2022-08-29T12:31:29.429Z,102401.03
2022-08-29T12:34:23.340Z,102409.91
2022-08-29T12:37:00.880Z,102400.91
2022-08-29T12:39:53.733Z,102390.94
2022-08-29T12:42:29.623Z,102388.25
2022-08-29T12:45:12.021Z,102397.75
2022-08-29T12:47:54.122Z,102395.03
2022-08-29T12:50:44.165Z,102391.56
2022-08-29T12:53:17.102Z,102395.88
2022-08-29T12:55:51.646Z,102395.97
2022-08-29T12:58:36.777Z,102397.06
2022-08-29T13:01:06.992Z,102406.34
2022-08-29T13:03:33.918Z,102398.63
2022-08-29T13:06:13.209Z,102379.38
2022-08-29T13:08:41.261Z,102390.09
2022-08-29T13:11:10.999Z,102384.81
2022-08-29T13:13:37.998Z,102390.81
2022-08-29T13:16:09.139Z,102393.72
2022-08-29T13:18:53.677Z,102384.78
2022-08-29T13:21:26.525Z,102366.63
2022-08-29T13:24:10.024Z,102379.28
2022-08-29T13:27:06.309Z,102381.69
2022-08-29T13:29:36.223Z,102384.72
2022-08-29T13:32:09.230Z,102383.91
2022-08-29T13:34:36.124Z,102379.28
2022-08-29T13:37:08.340Z,102360.78
2022-08-29T13:39:46.259Z,102372.50
2022-08-29T13:42:22.444Z,102366.03
2022-08-29T13:44:49.222Z,102358.75
2022-08-29T13:47:28.832Z,102347.03
2022-08-29T13:50:01.107Z,102352.50
2022-08-29T13:52:31.542Z,102344.28
2022-08-29T13:54:59.100Z,102338.00
2022-08-29T13:57:29.129Z,102352.94
2022-08-29T13:59:57.289Z,102358.00
2022-08-29T14:02:25.946Z,102363.94
2022-08-29T14:04:53.109Z,102368.97
2022-08-29T14:07:24.219Z,102377.66
2022-08-29T14:09:51.837Z,102375.69
2022-08-29T14:12:19.178Z,102375.41
2022-08-29T14:14:48.353Z,102371.47
2022-08-29T14:17:18.680Z,102367.88
2022-08-29T14:19:46.985Z,102376.84
2022-08-29T14:22:14.452Z,102386.44
2022-08-29T14:24:41.911Z,102374.19
2022-08-29T14:27:09.681Z,102368.69
2022-08-29T14:29:36.879Z,102363.34
2022-08-29T14:32:04.271Z,102362.09
2022-08-29T14:34:32.860Z,102378.00
2022-08-29T14:37:03.161Z,102360.59
2022-08-29T14:39:30.532Z,102362.28
2022-08-29T14:41:57.539Z,102342.25
2022-08-29T14:44:24.546Z,102330.22
2022-08-29T14:46:51.887Z,102329.03
2022-08-29T14:49:19.642Z,102321.19
2022-08-29T14:51:46.838Z,102331.41
2022-08-29T14:54:14.156Z,102331.91
2022-08-29T14:56:50.615Z,102350.25
2022-08-29T14:59:22.487Z,102364.41
2022-08-29T15:01:54.373Z,102348.59
2022-08-29T15:04:35.637Z,102343.72
2022-08-29T15:07:08.312Z,102334.34
2022-08-29T15:09:35.515Z,102336.75
2022-08-29T15:12:03.003Z,102339.66
2022-08-29T15:14:29.980Z,102334.69
2022-08-29T15:16:56.727Z,102343.72
2022-08-29T15:22:11.616Z,102346.94
2022-08-29T15:24:39.219Z,102341.97
2022-08-29T15:27:06.621Z,102329.69
2022-08-29T15:29:34.103Z,102329.31
2022-08-29T15:32:01.171Z,102324.97
2022-08-29T15:34:28.572Z,102343.47
2022-08-29T15:36:56.735Z,102336.91
2022-08-29T15:39:28.050Z,102336.59
2022-08-29T15:41:56.566Z,102338.84
2022-08-29T15:44:24.109Z,102340.69
2022-08-29T15:46:52.231Z,102337.31
2022-08-29T15:49:22.065Z,102336.75
2022-08-29T15:51:52.759Z,102339.88
2022-08-29T15:54:20.839Z,102339.84
2022-08-29T15:56:48.059Z,102337.88
2022-08-29T15:59:16.774Z,102352.44
2022-08-29T16:01:47.308Z,102349.38
2022-08-29T16:04:17.262Z,102354.97
2022-08-29T16:06:44.139Z,102357.44
2022-08-29T16:09:15.091Z,102360.69
2022-08-29T16:11:44.149Z,102361.31
2022-08-29T16:16:58.857Z,102364.91
2022-08-29T16:19:25.677Z,102365.94
2022-08-29T16:21:52.899Z,102371.78
2022-08-29T16:24:21.874Z,102386.19
2022-08-29T16:26:48.764Z,102394.34
2022-08-29T16:29:16.481Z,102397.50
2022-08-29T16:31:54.044Z,102402.50
2022-08-29T16:34:22.838Z,102399.59
2022-08-29T16:36:49.687Z,102403.63
2022-08-29T16:39:16.446Z,102412.97
2022-08-29T16:41:45.252Z,102425.00
2022-08-29T16:44:12.084Z,102441.47
2022-08-29T16:46:38.873Z,102449.03
2022-08-29T16:49:06.042Z,102462.47
2022-08-29T16:51:32.885Z,102468.97
2022-08-29T16:54:00.150Z,102451.41
2022-08-29T16:56:27.311Z,102449.03
2022-08-29T16:59:01.537Z,102457.44
2022-08-29T17:01:35.235Z,102466.34
2022-08-29T17:04:04.429Z,102466.47
2022-08-29T17:06:32.861Z,102464.06
2022-08-29T17:09:00.202Z,102471.66
2022-08-29T17:11:28.293Z,102482.06
2022-08-29T17:13:55.744Z,102481.19
2022-08-29T17:16:23.256Z,102486.34
2022-08-29T17:18:50.599Z,102487.41
2022-08-29T17:21:17.808Z,102481.56
2022-08-29T17:23:45.466Z,102494.31
2022-08-29T17:26:16.502Z,102503.13
2022-08-29T17:28:45.852Z,102488.53
2022-08-29T17:31:13.286Z,102474.75
2022-08-29T17:33:40.694Z,102482.84
2022-08-29T17:36:09.447Z,102491.06
2022-08-29T17:38:38.883Z,102497.38
2022-08-29T17:41:14.671Z,102509.31
2022-08-29T17:43:42.614Z,102517.47
2022-08-29T17:46:09.724Z,102525.72
2022-08-29T17:48:36.818Z,102526.00
2022-08-29T17:51:04.298Z,102538.63
2022-08-29T17:53:32.523Z,102537.91
2022-08-29T17:56:11.390Z,102557.84
2022-08-29T17:58:39.980Z,102561.41
2022-08-29T18:01:13.622Z,102567.69
2022-08-29T18:03:44.417Z,102580.19
2022-08-29T18:06:14.887Z,102591.81
2022-08-29T18:08:47.906Z,102607.34
2022-08-29T18:11:17.068Z,102619.63
2022-08-29T18:13:44.501Z,102631.34
2022-08-29T18:16:12.107Z,102647.47
2022-08-29T18:18:39.319Z,102661.97
2022-08-29T18:21:06.433Z,102678.09
2022-08-29T18:23:33.520Z,102693.25
2022-08-29T18:26:01.273Z,102713.66
2022-08-29T18:28:28.374Z,102734.78
2022-08-29T18:30:55.562Z,102750.88
2022-08-29T18:33:22.474Z,102774.00
2022-08-29T18:35:49.264Z,102781.28
2022-08-29T18:38:16.395Z,102795.50
2022-08-29T18:40:44.032Z,102822.53
2022-08-29T18:43:13.330Z,102850.72
2022-08-29T18:45:41.203Z,102870.06
2022-08-29T18:48:08.846Z,102889.53
2022-08-29T18:50:36.489Z,102903.63
2022-08-29T18:53:08.220Z,102911.63
2022-08-29T18:55:35.656Z,102931.19
2022-08-29T18:58:04.068Z,102946.19
2022-08-29T19:00:31.546Z,102965.00
2022-08-29T19:03:01.150Z,102981.00
2022-08-29T19:05:31.092Z,103007.38
2022-08-29T19:07:58.466Z,103024.16
2022-08-29T19:10:28.270Z,103041.00
2022-08-29T19:12:56.928Z,103057.78
2022-08-29T19:15:25.941Z,103076.44
2022-08-29T19:17:53.549Z,103086.13
2022-08-29T19:20:42.685Z,103098.31
2022-08-29T19:23:10.463Z,103113.25
2022-08-29T19:25:38.389Z,103119.50
2022-08-29T19:28:06.289Z,103136.34
2022-08-29T19:30:34.119Z,103143.19
2022-08-29T19:33:01.087Z,103150.88
2022-08-29T19:35:27.987Z,103180.78
2022-08-29T19:37:54.876Z,103182.53
2022-08-29T19:40:22.975Z,103173.78
2022-08-29T19:42:49.940Z,103175.56
2022-08-29T19:45:19.156Z,103170.34
2022-08-29T19:47:46.123Z,103167.72
2022-08-29T19:50:14.501Z,103170.44
2022-08-29T19:52:41.837Z,103184.59
2022-08-29T19:55:12.893Z,103188.19
2022-08-29T19:57:41.510Z,103197.03
2022-08-29T20:00:14.030Z,103195.28
2022-08-29T20:02:42.405Z,103203.34
2022-08-29T20:05:13.843Z,103201.59
2022-08-29T20:07:41.949Z,103207.84
2022-08-29T20:10:10.878Z,103219.34
2022-08-29T20:12:37.675Z,103223.84
2022-08-29T20:15:06.975Z,103226.56
2022-08-29T20:17:39.217Z,103239.00
2022-08-29T20:20:13.048Z,103248.81
2022-08-29T20:22:39.896Z,103263.00
2022-08-29T20:25:10.714Z,103264.84
2022-08-29T20:27:38.394Z,103279.94
2022-08-29T20:30:09.027Z,103287.91
2022-08-29T20:32:36.078Z,103296.81
2022-08-29T20:35:04.380Z,103305.72
2022-08-29T20:37:31.152Z,103323.44
2022-08-29T20:39:58.704Z,103338.50
2022-08-29T20:42:26.140Z,103340.28
2022-08-29T20:44:56.561Z,103348.31
2022-08-29T20:47:24.255Z,103359.78
2022-08-29T20:49:55.885Z,103378.28
2022-08-29T20:52:24.323Z,103392.44
2022-08-29T20:54:51.812Z,103388.97
2022-08-29T20:57:18.878Z,103401.38
2022-08-29T20:59:46.361Z,103411.13
2022-08-29T21:02:14.021Z,103423.50
2022-08-29T21:04:59.631Z,103427.97
2022-08-29T21:07:26.493Z,103443.00
2022-08-29T21:09:54.790Z,103463.25
2022-08-29T21:12:22.307Z,103467.69
2022-08-29T21:14:54.357Z,103486.22
2022-08-29T21:17:21.210Z,103498.56
2022-08-29T21:19:48.155Z,103503.84
2022-08-29T21:22:15.622Z,103517.09
2022-08-29T21:24:42.464Z,103518.88
2022-08-29T21:27:10.598Z,103520.66
2022-08-29T21:29:37.462Z,103510.97
2022-08-29T21:32:04.877Z,103521.53
2022-08-29T21:34:31.826Z,103516.25
2022-08-29T21:36:58.582Z,103518.03
2022-08-29T21:39:28.873Z,103510.09
2022-08-29T21:41:57.587Z,103508.38
2022-08-29T21:44:24.370Z,103504.81
2022-08-29T21:46:51.317Z,103502.19
2022-08-29T21:49:21.504Z,103500.47
2022-08-29T21:51:49.144Z,103489.88
2022-08-29T21:54:17.339Z,103481.03
2022-08-29T21:56:45.408Z,103473.06
2022-08-29T21:59:14.032Z,103460.72
2022-08-29T22:01:41.737Z,103443.06
2022-08-29T22:04:19.143Z,103429.81
2022-08-29T22:06:54.804Z,103411.31
2022-08-29T22:09:21.732Z,103396.34
2022-08-29T22:11:49.003Z,103380.44
2022-08-29T22:14:15.768Z,103362.84
2022-08-29T22:16:43.023Z,103345.31
2022-08-29T22:19:12.972Z,103319.00
2022-08-29T22:21:42.677Z,103316.38
2022-08-29T22:24:10.583Z,103304.03
2022-08-29T22:26:39.353Z,103304.88
2022-08-29T22:29:08.298Z,103308.31
2022-08-29T22:31:40.454Z,103294.25
2022-08-29T22:34:17.241Z,103283.69
2022-08-29T22:36:45.633Z,103278.34
2022-08-29T22:39:12.609Z,103276.56
2022-08-29T22:41:44.210Z,103263.38
2022-08-29T22:47:01.508Z,103249.34
2022-08-29T22:49:33.244Z,103249.44
2022-08-29T22:52:00.754Z,103249.44
2022-08-29T22:54:36.474Z,103243.34
2022-08-29T22:57:10.090Z,103241.56
2022-08-29T22:59:37.817Z,103245.94
2022-08-29T23:02:05.799Z,103245.94
2022-08-29T23:04:32.630Z,103238.06
2022-08-29T23:07:00.780Z,103232.91
2022-08-29T23:09:33.533Z,103231.13
2022-08-29T23:12:05.624Z,103253.06
2022-08-29T23:14:34.827Z,103256.53
2022-08-29T23:17:02.566Z,103256.50
2022-08-29T23:19:29.365Z,103251.16
2022-08-29T23:21:57.904Z,103246.69
2022-08-29T23:24:26.263Z,103249.34
2022-08-29T23:26:53.177Z,103245.81
2022-08-29T23:29:20.766Z,103248.47
2022-08-29T23:31:47.546Z,103260.72
2022-08-29T23:34:14.637Z,103268.59
2022-08-29T23:36:41.478Z,103277.28
2022-08-29T23:39:08.432Z,103275.44
2022-08-29T23:41:36.152Z,103278.03
2022-08-29T23:44:03.524Z,103266.59
2022-08-29T23:46:30.358Z,103270.06
2022-08-29T23:48:57.877Z,103277.00
2022-08-29T23:51:24.653Z,103269.84
2022-08-29T23:53:51.450Z,103258.38
2022-08-29T23:56:21.114Z,103239.81
2022-08-29T23:58:48.286Z,103229.25
